createdAt,value
2017-06-19T00:00:59.695Z,12.00
2017-06-19T00:03:27.206Z,11.67
2017-06-19T00:05:54.657Z,12.00
2017-06-19T00:08:22.135Z,11.07
2017-06-19T00:10:49.606Z,12.07
2017-06-19T00:13:17.130Z,11.48
2017-06-19T00:15:44.606Z,11.68
2017-06-19T00:18:12.090Z,12.37
2017-06-19T00:20:39.551Z,12.57
2017-06-19T00:23:13.370Z,12.90
2017-06-19T00:25:41.634Z,11.95
2017-06-19T00:28:09.883Z,11.60
2017-06-19T00:30:37.350Z,12.60
2017-06-19T00:33:04.792Z,12.55
2017-06-19T00:35:32.277Z,13.27
2017-06-19T00:37:59.730Z,13.47
2017-06-19T00:40:27.259Z,12.85
2017-06-19T00:42:54.722Z,13.20
2017-06-19T00:45:22.183Z,12.40
2017-06-19T00:47:49.638Z,12.60
2017-06-19T00:50:17.113Z,12.60
2017-06-19T00:52:44.646Z,12.93
2017-06-19T00:55:12.079Z,12.65
2017-06-19T00:57:39.565Z,13.15
2017-06-19T01:00:07.010Z,12.40
2017-06-19T01:02:34.470Z,12.25
2017-06-19T01:05:01.926Z,12.93
2017-06-19T01:07:29.379Z,12.75
2017-06-19T01:09:57.020Z,12.40
2017-06-19T01:12:24.595Z,13.02
2017-06-19T01:14:52.051Z,12.20
2017-06-19T01:17:19.524Z,12.60
2017-06-19T01:19:46.965Z,12.43
2017-06-19T01:22:14.425Z,11.90
2017-06-19T01:24:41.907Z,12.82
2017-06-19T01:27:09.474Z,12.00
2017-06-19T01:29:37.706Z,13.00
2017-06-19T01:32:05.190Z,12.60
2017-06-19T01:34:32.645Z,13.88
2017-06-19T01:37:00.197Z,12.57
2017-06-19T01:39:27.634Z,13.60
2017-06-19T01:41:55.113Z,13.00
2017-06-19T01:44:22.553Z,13.27
2017-06-19T01:46:49.991Z,12.80
2017-06-19T01:49:17.474Z,12.98
2017-06-19T01:51:45.027Z,13.30
2017-06-19T01:54:12.491Z,12.88
2017-06-19T01:56:39.947Z,13.25
2017-06-19T01:59:07.519Z,13.25
2017-06-19T02:01:35.062Z,13.90
2017-06-19T02:04:02.518Z,14.60
2017-06-19T02:06:29.995Z,13.57
2017-06-19T02:08:57.539Z,14.10
2017-06-19T02:11:25.015Z,13.15
2017-06-19T02:13:52.543Z,14.15
2017-06-19T02:16:20.021Z,13.50
2017-06-19T02:18:47.448Z,13.50
2017-06-19T02:21:14.918Z,13.50
2017-06-19T02:23:42.363Z,12.85
2017-06-19T02:26:09.958Z,13.85
2017-06-19T02:28:37.486Z,12.33
2017-06-19T02:31:05.023Z,13.40
2017-06-19T02:33:32.538Z,13.20
2017-06-19T02:35:59.979Z,14.33
2017-06-19T02:38:27.412Z,14.32
2017-06-19T02:40:54.873Z,14.20
2017-06-19T02:43:22.322Z,13.07
2017-06-19T02:45:49.787Z,14.02
2017-06-19T02:48:17.230Z,13.60
2017-06-19T02:50:44.681Z,14.07
2017-06-19T02:53:12.166Z,14.60
2017-06-19T02:55:39.634Z,14.82
2017-06-19T02:58:07.171Z,14.20
2017-06-19T03:00:34.627Z,14.50
2017-06-19T03:03:02.178Z,15.15
2017-06-19T03:05:29.662Z,15.00
2017-06-19T03:07:57.111Z,15.98
2017-06-19T03:10:39.446Z,15.00
2017-06-19T03:13:06.915Z,14.75
2017-06-19T03:15:34.417Z,14.50
2017-06-19T03:18:01.975Z,15.45
2017-06-19T03:20:29.532Z,15.65
2017-06-19T03:22:57.095Z,15.13
2017-06-19T03:25:24.655Z,14.55
2017-06-19T03:27:52.112Z,14.20
2017-06-19T03:30:19.582Z,14.02
2017-06-19T03:32:47.196Z,15.33
2017-06-19T03:35:14.688Z,14.55
2017-06-19T03:37:42.193Z,13.70
2017-06-19T03:40:09.671Z,15.00
2017-06-19T03:42:37.121Z,14.95
2017-06-19T03:45:04.542Z,13.60
2017-06-19T03:47:32.004Z,15.73
2017-06-19T03:49:59.522Z,15.50
2017-06-19T03:52:27.123Z,15.25
2017-06-19T03:54:54.626Z,16.17
2017-06-19T03:57:22.098Z,15.90
2017-06-19T03:59:49.643Z,15.70
2017-06-19T04:02:17.183Z,16.00
2017-06-19T04:04:44.713Z,16.23
2017-06-19T04:07:12.939Z,15.68
2017-06-19T04:09:40.390Z,15.53
2017-06-19T04:12:07.842Z,15.13
2017-06-19T04:14:35.306Z,14.87
2017-06-19T04:17:02.764Z,14.77
2017-06-19T04:19:30.215Z,15.57
2017-06-19T04:21:57.670Z,15.23
2017-06-19T04:24:25.178Z,14.32
2017-06-19T04:26:53.402Z,15.73
2017-06-19T04:29:20.862Z,15.80
2017-06-19T04:31:48.334Z,17.02
2017-06-19T04:34:15.791Z,16.30
2017-06-19T04:36:43.351Z,17.90
2017-06-19T04:39:10.786Z,17.70
2017-06-19T04:41:38.242Z,18.40
2017-06-19T04:44:05.703Z,18.45
2017-06-19T04:46:33.148Z,17.90
2017-06-19T04:49:00.746Z,18.00
2017-06-19T04:51:28.186Z,22.30
2017-06-19T04:53:55.653Z,18.30
2017-06-19T04:56:23.145Z,17.95
2017-06-19T04:58:50.645Z,17.37
2017-06-19T05:01:18.091Z,17.73
2017-06-19T05:03:45.635Z,15.70
2017-06-19T05:06:13.140Z,16.77
2017-06-19T05:08:40.678Z,15.77
2017-06-19T05:11:08.139Z,15.20
2017-06-19T05:13:35.590Z,15.00
2017-06-19T05:16:03.031Z,16.02
2017-06-19T05:18:30.504Z,15.60
2017-06-19T05:20:58.036Z,14.40
2017-06-19T05:23:25.506Z,14.13
2017-06-19T05:25:52.971Z,14.38
2017-06-19T05:28:20.454Z,14.52
2017-06-19T05:30:47.991Z,14.77
2017-06-19T05:33:15.575Z,13.35
2017-06-19T05:35:43.024Z,13.90
2017-06-19T05:38:10.470Z,14.82
2017-06-19T05:40:38.004Z,13.57
2017-06-19T05:43:05.477Z,14.18
2017-06-19T05:45:33.040Z,13.93
2017-06-19T05:48:00.492Z,13.60
2017-06-19T05:50:28.020Z,13.48
2017-06-19T05:52:55.516Z,13.80
2017-06-19T05:55:22.992Z,12.75
2017-06-19T05:57:51.297Z,13.40
2017-06-19T06:00:18.964Z,12.82
2017-06-19T06:02:46.531Z,13.30
2017-06-19T06:05:14.007Z,12.77
2017-06-19T06:07:41.556Z,12.30
2017-06-19T06:10:09.109Z,12.20
2017-06-19T06:12:36.599Z,11.60
2017-06-19T06:15:04.039Z,11.18
2017-06-19T06:17:31.509Z,11.27
2017-06-19T06:19:58.951Z,11.30
2017-06-19T06:22:26.489Z,10.43
2017-06-19T06:24:53.972Z,11.00
2017-06-19T06:27:21.507Z,10.68
2017-06-19T06:29:48.985Z,11.18
2017-06-19T06:32:16.431Z,11.00
2017-06-19T06:34:43.916Z,10.23
2017-06-19T06:37:11.415Z,9.30
2017-06-19T06:39:38.999Z,8.40
2017-06-19T06:42:06.451Z,8.15
2017-06-19T06:44:33.918Z,7.93
2017-06-19T06:47:01.368Z,7.93
2017-06-19T06:49:28.842Z,9.32
2017-06-19T06:51:56.395Z,8.85
2017-06-19T06:54:23.931Z,9.07
2017-06-19T06:56:51.591Z,9.48
2017-06-19T06:59:19.040Z,8.85
2017-06-19T07:01:46.484Z,8.18
2017-06-19T07:04:14.003Z,11.40
2017-06-19T07:06:41.498Z,7.23
2017-06-19T07:09:09.018Z,7.72
2017-06-19T07:11:36.589Z,7.73
2017-06-19T07:14:04.822Z,8.20
2017-06-19T07:16:32.257Z,8.80
2017-06-19T07:18:59.738Z,8.53
2017-06-19T07:21:27.279Z,8.43
2017-06-19T07:23:54.838Z,8.95
2017-06-19T07:26:22.291Z,9.10
2017-06-19T07:28:49.762Z,8.40
2017-06-19T07:31:17.223Z,8.80
2017-06-19T07:33:44.795Z,9.90
2017-06-19T07:36:12.320Z,8.80
2017-06-19T07:38:39.787Z,9.13
2017-06-19T07:41:07.262Z,10.10
2017-06-19T07:43:34.752Z,10.25
2017-06-19T07:46:02.990Z,9.65
2017-06-19T07:48:30.446Z,9.80
2017-06-19T07:50:57.911Z,9.00
2017-06-19T07:53:25.375Z,8.10
2017-06-19T07:55:52.819Z,8.93
2017-06-19T07:58:20.255Z,9.25
2017-06-19T08:00:47.711Z,9.02
2017-06-19T08:03:15.146Z,9.02
2017-06-19T08:05:42.602Z,9.27
2017-06-19T08:08:10.038Z,9.57
2017-06-19T08:10:38.298Z,10.15
2017-06-19T08:13:05.767Z,9.52
2017-06-19T08:15:34.006Z,8.73
2017-06-19T08:18:01.482Z,8.20
2017-06-19T08:20:29.718Z,7.20
2017-06-19T08:22:57.187Z,7.85
2017-06-19T08:25:24.639Z,7.03
2017-06-19T08:27:52.245Z,6.78
2017-06-19T08:30:20.480Z,6.57
2017-06-19T08:32:47.964Z,7.62
2017-06-19T08:35:15.391Z,7.03
2017-06-19T08:37:42.839Z,8.00
2017-06-19T08:40:10.290Z,6.97
2017-06-19T08:42:37.751Z,6.57
2017-06-19T08:45:05.203Z,6.53
2017-06-19T08:47:32.688Z,6.70
2017-06-19T08:50:00.126Z,7.30
2017-06-19T08:52:27.559Z,6.90
2017-06-19T08:54:55.070Z,7.00
2017-06-19T08:57:22.527Z,7.03
2017-06-19T08:59:50.086Z,6.80
2017-06-19T09:02:17.645Z,7.30
2017-06-19T09:04:45.920Z,7.37
2017-06-19T09:07:14.234Z,6.93
2017-06-19T09:09:41.805Z,7.57
2017-06-19T09:12:09.860Z,7.30
2017-06-19T09:14:37.302Z,7.18
2017-06-19T09:17:05.067Z,6.80
2017-06-19T09:19:32.537Z,7.40
2017-06-19T09:22:00.148Z,6.87
2017-06-19T09:24:27.571Z,6.72
2017-06-19T09:26:55.956Z,6.95
2017-06-19T09:29:25.153Z,7.30
2017-06-19T09:31:53.466Z,6.40
2017-06-19T09:34:20.882Z,7.03
2017-06-19T09:36:49.168Z,7.37
2017-06-19T09:39:16.822Z,6.60
2017-06-19T09:41:44.286Z,6.68
2017-06-19T09:44:11.769Z,6.30
2017-06-19T09:46:39.440Z,6.65
2017-06-19T09:49:07.741Z,6.30
2017-06-19T09:51:35.219Z,6.85
2017-06-19T09:54:02.685Z,6.60
2017-06-19T09:56:30.123Z,6.07
2017-06-19T09:58:57.634Z,6.18
2017-06-19T10:01:25.114Z,6.60
2017-06-19T10:03:52.639Z,6.60
2017-06-19T10:06:20.118Z,5.90
2017-06-19T10:08:48.535Z,6.50
2017-06-19T10:11:16.031Z,6.50
2017-06-19T10:13:44.324Z,6.20
2017-06-19T10:16:12.603Z,6.32
2017-06-19T10:18:40.069Z,7.03
2017-06-19T10:21:08.265Z,6.50
2017-06-19T10:23:35.795Z,6.97
2017-06-19T10:26:03.281Z,6.80
2017-06-19T10:28:30.767Z,6.18
2017-06-19T10:30:58.358Z,7.50
2017-06-19T10:33:26.574Z,8.40
2017-06-19T10:35:54.040Z,5.87
2017-06-19T10:38:21.463Z,9.52
2017-06-19T10:40:49.006Z,6.60
2017-06-19T10:43:17.235Z,5.90
2017-06-19T10:45:44.722Z,5.82
2017-06-19T10:48:12.147Z,6.78
2017-06-19T10:50:39.639Z,7.60
2017-06-19T10:53:07.888Z,6.90
2017-06-19T10:55:35.370Z,6.32
2017-06-19T10:58:03.594Z,6.75
2017-06-19T11:00:31.073Z,6.05
2017-06-19T11:02:58.911Z,6.30
2017-06-19T11:05:26.353Z,6.95
2017-06-19T11:07:53.823Z,6.10
2017-06-19T11:10:21.360Z,6.37
2017-06-19T11:12:48.812Z,6.07
2017-06-19T11:15:16.252Z,6.10
2017-06-19T11:17:44.490Z,5.80
2017-06-19T11:20:12.051Z,6.47
2017-06-19T11:22:39.497Z,6.75
2017-06-19T11:25:06.956Z,6.68
2017-06-19T11:27:34.388Z,6.00
2017-06-19T11:30:01.946Z,6.30
2017-06-19T11:32:29.435Z,5.85
2017-06-19T11:34:56.883Z,6.40
2017-06-19T11:37:24.336Z,5.80
2017-06-19T11:39:51.810Z,6.10
2017-06-19T11:42:19.249Z,6.40
2017-06-19T11:44:46.674Z,7.10
2017-06-19T11:47:14.102Z,7.07
2017-06-19T11:49:42.320Z,5.70
2017-06-19T11:52:09.763Z,6.00
2017-06-19T11:54:37.251Z,6.30
2017-06-19T11:57:04.711Z,6.00
2017-06-19T11:59:32.253Z,6.47
2017-06-19T12:01:59.703Z,6.57
2017-06-19T12:04:27.160Z,6.55
2017-06-19T12:06:54.612Z,6.62
2017-06-19T12:09:22.045Z,6.30
2017-06-19T12:11:50.246Z,6.20
2017-06-19T12:14:17.701Z,6.07
2017-06-19T12:16:45.122Z,6.10
2017-06-19T12:19:13.434Z,6.00
2017-06-19T12:21:40.904Z,6.40
2017-06-19T12:24:08.352Z,6.35
2017-06-19T12:26:35.831Z,6.60
2017-06-19T12:29:03.270Z,7.22
2017-06-19T12:31:30.735Z,6.47
2017-06-19T12:33:58.199Z,6.45
2017-06-19T12:36:25.642Z,6.28
2017-06-19T12:38:53.191Z,7.00
2017-06-19T12:41:20.627Z,7.00
2017-06-19T12:43:48.863Z,6.50
2017-06-19T12:46:16.387Z,7.20
2017-06-19T12:48:43.882Z,6.72
2017-06-19T12:51:11.501Z,7.12
2017-06-19T12:53:38.922Z,5.90
2017-06-19T12:56:06.414Z,6.00
2017-06-19T12:58:33.855Z,6.20
2017-06-19T13:01:01.420Z,6.77
2017-06-19T13:03:28.981Z,7.65
2017-06-19T13:05:56.444Z,6.28
2017-06-19T13:08:23.915Z,5.90
2017-06-19T13:10:51.347Z,7.25
2017-06-19T13:13:18.787Z,5.70
2017-06-19T13:15:46.298Z,6.40
2017-06-19T13:18:13.758Z,7.10
2017-06-19T13:20:41.279Z,5.93
2017-06-19T13:23:08.735Z,6.20
2017-06-19T13:25:36.290Z,6.87
2017-06-19T13:28:03.762Z,5.95
2017-06-19T13:30:31.206Z,6.45
2017-06-19T13:32:58.651Z,7.40
2017-06-19T13:35:26.216Z,6.70
2017-06-19T13:37:53.715Z,7.10
2017-06-19T13:40:21.263Z,6.80
2017-06-19T13:42:48.724Z,6.80
2017-06-19T13:45:16.211Z,7.28
2017-06-19T13:47:43.631Z,6.97
2017-06-19T13:50:11.074Z,7.22
2017-06-19T13:52:38.526Z,7.10
2017-06-19T13:55:05.998Z,7.30
2017-06-19T13:57:33.478Z,6.50
2017-06-19T14:00:01.025Z,7.45
2017-06-19T14:02:28.566Z,6.40
2017-06-19T14:04:56.040Z,6.60
2017-06-19T14:07:23.507Z,6.55
2017-06-19T14:09:50.987Z,7.10
2017-06-19T14:12:19.183Z,6.80
2017-06-19T14:14:46.616Z,6.60
2017-06-19T14:17:14.151Z,7.07
2017-06-19T14:19:41.582Z,7.37
2017-06-19T14:22:09.217Z,7.00
2017-06-19T14:24:36.680Z,6.83
2017-06-19T14:27:04.134Z,7.35
2017-06-19T14:29:31.563Z,6.65
2017-06-19T14:31:59.044Z,6.75
2017-06-19T14:34:26.524Z,7.40
2017-06-19T14:36:53.991Z,6.00
2017-06-19T14:39:21.503Z,6.07
2017-06-19T14:41:48.991Z,5.60
2017-06-19T14:44:16.438Z,5.40
2017-06-19T14:46:43.962Z,6.30
2017-06-19T14:49:11.467Z,5.37
2017-06-19T14:51:38.954Z,6.20
2017-06-19T14:54:07.195Z,6.50
2017-06-19T14:56:34.754Z,5.87
2017-06-19T14:59:02.965Z,5.90
2017-06-19T15:01:31.233Z,5.80
2017-06-19T15:03:58.702Z,5.23
2017-06-19T15:06:27.013Z,4.70
2017-06-19T15:08:54.526Z,5.00
2017-06-19T15:11:22.848Z,5.10
2017-06-19T15:13:50.333Z,5.40
2017-06-19T15:16:17.863Z,4.78
2017-06-19T15:18:45.276Z,4.18
2017-06-19T15:21:31.324Z,5.10
2017-06-19T15:23:58.759Z,4.50
2017-06-19T15:26:26.211Z,5.00
2017-06-19T15:28:53.799Z,4.70
2017-06-19T15:31:21.339Z,4.50
2017-06-19T15:33:48.786Z,4.60
2017-06-19T15:36:16.298Z,4.10
2017-06-19T15:38:43.758Z,4.43
2017-06-19T15:41:11.300Z,4.20
2017-06-19T15:43:38.763Z,3.83
2017-06-19T15:46:06.298Z,4.20
2017-06-19T15:48:33.839Z,4.00
2017-06-19T15:51:01.266Z,4.07
2017-06-19T15:53:28.783Z,4.00
2017-06-19T15:55:56.215Z,4.12
2017-06-19T15:58:24.102Z,4.90
2017-06-19T16:00:51.558Z,5.03
2017-06-19T16:03:19.347Z,4.62
2017-06-19T16:05:46.770Z,4.00
2017-06-19T16:08:14.235Z,4.43
2017-06-19T16:10:41.769Z,4.65
2017-06-19T16:13:09.271Z,4.93
2017-06-19T16:15:36.882Z,4.65
2017-06-19T16:18:05.029Z,4.50
2017-06-19T16:20:33.255Z,4.80
2017-06-19T16:23:00.786Z,4.18
2017-06-19T16:25:28.231Z,5.07
2017-06-19T16:27:56.688Z,5.22
2017-06-19T16:30:24.999Z,4.15
2017-06-19T16:32:52.528Z,4.20
2017-06-19T16:35:20.710Z,3.80
2017-06-19T16:37:48.290Z,3.10
2017-06-19T16:40:15.745Z,4.05
2017-06-19T16:42:43.304Z,4.12
2017-06-19T16:45:10.723Z,3.85
2017-06-19T16:47:38.986Z,3.70
2017-06-19T16:50:07.538Z,3.60
2017-06-19T16:52:34.990Z,3.60
2017-06-19T16:55:02.469Z,4.25
2017-06-19T16:57:29.909Z,4.20
2017-06-19T16:59:57.443Z,4.60
2017-06-19T17:02:24.886Z,4.82
2017-06-19T17:04:52.378Z,5.10
2017-06-19T17:07:19.839Z,4.22
2017-06-19T17:09:47.276Z,3.80
2017-06-19T17:12:14.786Z,3.80
2017-06-19T17:14:42.211Z,3.80
2017-06-19T17:17:09.663Z,3.60
2017-06-19T17:19:37.101Z,3.80
2017-06-19T17:22:04.573Z,4.20
2017-06-19T17:24:32.128Z,4.20
2017-06-19T17:26:59.594Z,4.00
2017-06-19T17:29:27.161Z,4.33
2017-06-19T17:31:54.715Z,4.47
2017-06-19T17:34:22.155Z,4.22
2017-06-19T17:36:49.753Z,4.07
2017-06-19T17:39:17.210Z,4.20
2017-06-19T17:41:44.639Z,4.07
2017-06-19T17:44:12.090Z,4.15
2017-06-19T17:46:39.545Z,4.72
2017-06-19T17:49:07.080Z,4.25
2017-06-19T17:51:34.554Z,4.10
2017-06-19T17:54:02.023Z,4.25
2017-06-19T17:56:29.490Z,4.43
2017-06-19T17:58:56.951Z,3.95
2017-06-19T18:01:24.483Z,4.20
2017-06-19T18:03:51.920Z,3.83
2017-06-19T18:06:19.399Z,4.43
2017-06-19T18:08:46.945Z,4.45
2017-06-19T18:11:14.367Z,4.18
2017-06-19T18:13:41.887Z,4.40
2017-06-19T18:16:09.332Z,4.47
2017-06-19T18:18:36.878Z,4.53
2017-06-19T18:21:04.318Z,4.60
2017-06-19T18:23:31.775Z,4.77
2017-06-19T18:25:59.207Z,4.60
2017-06-19T18:28:26.644Z,4.50
2017-06-19T18:30:54.167Z,4.78
2017-06-19T18:33:21.662Z,4.53
2017-06-19T18:35:49.867Z,4.80
2017-06-19T18:38:17.362Z,4.90
2017-06-19T18:40:44.814Z,5.05
2017-06-19T18:43:12.250Z,4.53
2017-06-19T18:45:40.361Z,5.00
2017-06-19T18:48:07.911Z,5.40
2017-06-19T18:50:35.383Z,4.97
2017-06-19T18:53:02.907Z,5.20
2017-06-19T18:55:30.395Z,4.90
2017-06-19T18:57:57.931Z,4.95
2017-06-19T19:00:25.375Z,5.00
2017-06-19T19:02:52.816Z,5.17
2017-06-19T19:05:20.250Z,5.30
2017-06-19T19:07:47.695Z,5.65
2017-06-19T19:10:16.033Z,5.00
2017-06-19T19:12:43.493Z,5.30
2017-06-19T19:15:10.947Z,5.53
2017-06-19T19:17:38.379Z,4.90
2017-06-19T19:20:05.811Z,6.35
2017-06-19T19:22:33.419Z,5.62
2017-06-19T19:25:01.028Z,5.90
2017-06-19T19:27:28.469Z,6.80
2017-06-19T19:29:56.782Z,6.25
2017-06-19T19:32:24.236Z,10.95
2017-06-19T19:34:51.721Z,9.75
2017-06-19T19:37:19.195Z,8.30
2017-06-19T19:39:46.835Z,8.45
2017-06-19T19:42:14.306Z,7.80
2017-06-19T19:44:41.892Z,7.90
2017-06-19T19:47:10.210Z,8.07
2017-06-19T19:49:37.699Z,8.35
2017-06-19T19:52:05.154Z,9.10
2017-06-19T19:54:32.692Z,9.40
2017-06-19T19:57:00.123Z,8.80
2017-06-19T19:59:27.615Z,9.20
2017-06-19T20:01:55.064Z,10.00
2017-06-19T20:04:22.504Z,10.10
2017-06-19T20:06:49.982Z,10.45
2017-06-19T20:09:17.420Z,9.60
2017-06-19T20:11:44.846Z,9.57
2017-06-19T20:14:12.380Z,9.48
2017-06-19T20:16:40.604Z,11.10
2017-06-19T20:19:08.091Z,11.32
2017-06-19T20:21:35.545Z,10.40
2017-06-19T20:24:02.987Z,11.20
2017-06-19T20:26:30.449Z,9.48
2017-06-19T20:28:58.372Z,10.90
2017-06-19T20:31:26.241Z,8.87
2017-06-19T20:33:54.337Z,9.60
2017-06-19T20:36:22.603Z,9.73
2017-06-19T20:38:50.574Z,8.93
2017-06-19T20:41:18.849Z,8.50
2017-06-19T20:43:47.743Z,9.57
2017-06-19T20:46:15.657Z,9.00
2017-06-19T20:48:43.903Z,9.15
2017-06-19T20:51:11.366Z,9.30
2017-06-19T20:53:38.876Z,8.90
2017-06-19T20:56:07.095Z,8.80
2017-06-19T20:58:34.545Z,9.50
2017-06-19T21:01:02.005Z,9.85
2017-06-19T21:03:29.671Z,8.93
2017-06-19T21:05:57.118Z,9.25
2017-06-19T21:08:24.574Z,9.50
2017-06-19T21:10:52.031Z,9.52
2017-06-19T21:13:19.491Z,10.35
2017-06-19T21:15:46.962Z,10.70
2017-06-19T21:18:14.400Z,9.75
2017-06-19T21:20:41.898Z,10.20
2017-06-19T21:23:09.338Z,9.75
2017-06-19T21:25:36.915Z,10.07
2017-06-19T21:28:05.158Z,10.55
2017-06-19T21:30:32.707Z,10.43
2017-06-19T21:33:00.161Z,10.15
2017-06-19T21:35:27.644Z,10.40
2017-06-19T21:37:55.126Z,10.32
2017-06-19T21:40:22.600Z,10.55
2017-06-19T21:42:50.091Z,10.75
2017-06-19T21:45:17.522Z,10.90
2017-06-19T21:47:45.031Z,10.80
2017-06-19T21:50:13.286Z,11.10
2017-06-19T21:52:40.834Z,11.48
2017-06-19T21:55:08.321Z,11.98
2017-06-19T21:57:35.883Z,11.48
2017-06-19T22:00:03.331Z,11.30
2017-06-19T22:02:30.793Z,11.60
2017-06-19T22:04:58.269Z,12.13
2017-06-19T22:07:26.491Z,12.00
2017-06-19T22:09:53.922Z,11.27
2017-06-19T22:12:21.373Z,12.15
2017-06-19T22:14:48.862Z,12.50
2017-06-19T22:17:16.307Z,12.00
2017-06-19T22:19:43.803Z,12.40
2017-06-19T22:22:27.925Z,12.17
2017-06-19T22:24:55.495Z,12.52
2017-06-19T22:27:22.938Z,12.85
2017-06-19T22:29:50.430Z,12.60
2017-06-19T22:32:18.775Z,12.07
2017-06-19T22:34:46.211Z,13.60
2017-06-19T22:37:13.686Z,12.30
2017-06-19T22:39:41.142Z,13.30
2017-06-19T22:42:08.592Z,13.70
2017-06-19T22:44:36.059Z,13.87
2017-06-19T22:47:03.642Z,14.57
2017-06-19T22:49:31.911Z,13.52
2017-06-19T22:51:59.444Z,13.70
2017-06-19T22:54:26.914Z,12.80
2017-06-19T22:56:54.392Z,14.00
2017-06-19T22:59:21.918Z,14.10
2017-06-19T23:01:49.351Z,14.02
2017-06-19T23:04:16.827Z,14.00
2017-06-19T23:06:44.334Z,13.62
2017-06-19T23:09:12.559Z,14.02
2017-06-19T23:11:40.030Z,13.70
2017-06-19T23:14:07.494Z,13.32
2017-06-19T23:16:34.939Z,14.85
2017-06-19T23:19:02.398Z,15.50
2017-06-19T23:21:29.852Z,14.07
2017-06-19T23:23:57.303Z,14.55
2017-06-19T23:26:24.782Z,14.87
2017-06-19T23:28:52.333Z,15.93
2017-06-19T23:31:19.780Z,14.82
2017-06-19T23:33:47.213Z,14.93
2017-06-19T23:36:14.683Z,15.13
2017-06-19T23:38:42.171Z,16.10
2017-06-19T23:41:09.604Z,15.32
2017-06-19T23:43:37.164Z,15.38
2017-06-19T23:46:04.611Z,14.18
2017-06-19T23:48:32.072Z,14.45
2017-06-19T23:50:59.545Z,14.90
2017-06-19T23:53:27.087Z,14.40
2017-06-19T23:55:54.563Z,15.70
2017-06-19T23:58:22.006Z,15.20
